createdAt,value
2018-08-30T00:00:45.231Z,21.17
2018-08-30T00:01:45.482Z,21.2
2018-08-30T00:02:45.179Z,21.19
2018-08-30T00:03:45.520Z,21.19
2018-08-30T00:04:45.221Z,21.16
2018-08-30T00:05:45.288Z,21.16
2018-08-30T00:06:45.280Z,21.15
2018-08-30T00:07:45.277Z,21.15
2018-08-30T00:08:45.255Z,21.16
2018-08-30T00:09:45.557Z,21.15
2018-08-30T00:10:45.196Z,21.15
2018-08-30T00:11:45.285Z,21.17
2018-08-30T00:12:45.356Z,21.17
2018-08-30T00:13:45.281Z,21.23
2018-08-30T00:14:45.511Z,21.2
2018-08-30T00:15:46.025Z,21.2
2018-08-30T00:16:45.415Z,21.2
2018-08-30T00:17:45.905Z,21.16
2018-08-30T00:18:45.329Z,21.17
2018-08-30T00:19:46.137Z,21.13
2018-08-30T00:20:45.260Z,21.13
2018-08-30T00:21:45.309Z,21.15
2018-08-30T00:22:45.338Z,21.12
2018-08-30T00:23:45.330Z,21.09
2018-08-30T00:24:45.290Z,21.1
2018-08-30T00:25:46.129Z,21.09
2018-08-30T00:26:45.273Z,21.07
2018-08-30T00:27:45.206Z,21.06
2018-08-30T00:28:45.362Z,21.05
2018-08-30T00:29:45.684Z,21.07
2018-08-30T00:30:45.256Z,21.05
2018-08-30T00:31:45.254Z,20.99
2018-08-30T00:32:45.792Z,20.96
2018-08-30T00:33:45.399Z,20.94
2018-08-30T00:34:45.334Z,20.95
2018-08-30T00:35:45.274Z,20.95
2018-08-30T00:36:45.554Z,20.91
2018-08-30T00:37:45.303Z,20.94
2018-08-30T00:38:45.252Z,20.92
2018-08-30T00:39:45.352Z,20.92
2018-08-30T00:40:45.301Z,20.92
2018-08-30T00:41:45.230Z,20.94
2018-08-30T00:42:45.313Z,20.92
2018-08-30T00:43:46.087Z,20.91
2018-08-30T00:44:45.593Z,20.91
2018-08-30T00:45:45.283Z,20.94
2018-08-30T00:46:45.412Z,20.92
2018-08-30T00:47:45.270Z,20.95
2018-08-30T00:48:45.279Z,20.92
2018-08-30T00:49:45.419Z,20.95
2018-08-30T00:50:45.301Z,20.89
2018-08-30T00:51:45.248Z,20.91
2018-08-30T00:52:45.430Z,20.94
2018-08-30T00:53:45.274Z,20.92
2018-08-30T00:54:45.721Z,20.94
2018-08-30T00:55:45.342Z,20.91
2018-08-30T00:56:45.341Z,20.89
2018-08-30T00:57:45.300Z,20.85
2018-08-30T00:58:45.258Z,20.84
2018-08-30T00:59:45.375Z,20.84
2018-08-30T01:00:45.321Z,20.81
2018-08-30T01:01:45.418Z,20.85
2018-08-30T01:02:45.270Z,20.89
2018-08-30T01:03:45.300Z,20.88
2018-08-30T01:04:45.280Z,20.84
2018-08-30T01:05:45.314Z,20.82
2018-08-30T01:06:45.288Z,20.82
2018-08-30T01:07:45.268Z,20.82
2018-08-30T01:08:45.330Z,20.84
2018-08-30T01:09:45.367Z,20.79
2018-08-30T01:10:45.273Z,20.78
2018-08-30T01:11:45.317Z,20.77
2018-08-30T01:12:45.321Z,20.74
2018-08-30T01:13:45.290Z,20.74
2018-08-30T01:14:45.390Z,20.72
2018-08-30T01:15:45.414Z,20.72
2018-08-30T01:16:45.307Z,20.7
2018-08-30T01:17:45.673Z,20.74
2018-08-30T01:18:45.288Z,20.75
2018-08-30T01:19:45.387Z,20.71
2018-08-30T01:20:45.588Z,20.67
2018-08-30T01:21:45.423Z,20.64
2018-08-30T01:22:45.288Z,20.61
2018-08-30T01:23:45.747Z,20.64
2018-08-30T01:24:45.373Z,20.62
2018-08-30T01:25:45.365Z,20.6
2018-08-30T01:26:45.298Z,20.55
2018-08-30T01:27:45.330Z,20.61
2018-08-30T01:28:45.295Z,20.6
2018-08-30T01:29:45.554Z,20.57
2018-08-30T01:30:45.343Z,20.61
2018-08-30T01:31:45.321Z,20.57
2018-08-30T01:32:45.292Z,20.51
2018-08-30T01:33:45.502Z,20.51
2018-08-30T01:34:45.438Z,20.54
2018-08-30T01:35:45.311Z,20.47
2018-08-30T01:36:45.400Z,20.43
2018-08-30T01:37:45.388Z,20.37
2018-08-30T01:38:45.307Z,20.46
2018-08-30T01:39:45.477Z,20.47
2018-08-30T01:40:45.425Z,20.46
2018-08-30T01:41:45.455Z,20.44
2018-08-30T01:42:45.318Z,20.39
2018-08-30T01:43:45.371Z,20.33
2018-08-30T01:44:45.422Z,20.24
2018-08-30T01:45:45.404Z,20.26
2018-08-30T01:46:45.337Z,20.27
2018-08-30T01:47:45.437Z,20.26
2018-08-30T01:48:45.323Z,20.2
2018-08-30T01:49:45.924Z,20.24
2018-08-30T01:50:45.424Z,20.12
2018-08-30T01:51:45.537Z,20.12
2018-08-30T01:52:45.394Z,20.11
2018-08-30T01:53:45.630Z,20.08
2018-08-30T01:54:45.364Z,19.98
2018-08-30T01:55:45.848Z,19.98
2018-08-30T01:56:45.346Z,19.99
2018-08-30T01:57:45.625Z,19.98
2018-08-30T01:58:45.683Z,19.99
2018-08-30T01:59:45.347Z,19.98
2018-08-30T02:00:45.392Z,19.96
2018-08-30T02:01:45.475Z,19.96
2018-08-30T02:02:45.378Z,19.99
2018-08-30T02:03:45.731Z,19.88
2018-08-30T02:04:45.494Z,19.91
2018-08-30T02:05:45.540Z,19.92
2018-08-30T02:06:45.487Z,19.92
2018-08-30T02:07:45.642Z,19.92
2018-08-30T02:08:45.397Z,19.89
2018-08-30T02:09:45.581Z,19.88
2018-08-30T02:10:45.853Z,19.88
2018-08-30T02:11:45.466Z,19.88
2018-08-30T02:12:45.469Z,19.92
2018-08-30T02:13:45.334Z,19.92
2018-08-30T02:14:45.440Z,19.91
2018-08-30T02:15:45.366Z,19.92
2018-08-30T02:16:45.519Z,19.92
2018-08-30T02:17:45.447Z,19.86
2018-08-30T02:18:45.364Z,19.86
2018-08-30T02:19:45.655Z,19.84
2018-08-30T02:20:45.480Z,19.81
2018-08-30T02:21:45.374Z,19.84
2018-08-30T02:22:45.381Z,19.82
2018-08-30T02:23:45.464Z,19.82
2018-08-30T02:24:45.380Z,19.81
2018-08-30T02:25:45.400Z,19.82
2018-08-30T02:26:45.400Z,19.82
2018-08-30T02:27:45.611Z,19.85
2018-08-30T02:28:45.367Z,19.88
2018-08-30T02:29:45.393Z,19.89
2018-08-30T02:30:45.551Z,19.89
2018-08-30T02:31:45.434Z,19.93
2018-08-30T02:32:45.461Z,19.95
2018-08-30T02:33:45.369Z,19.96
2018-08-30T02:34:45.414Z,19.95
2018-08-30T02:35:45.637Z,19.95
2018-08-30T02:36:45.489Z,19.92
2018-08-30T02:37:45.882Z,19.96
2018-08-30T02:38:45.378Z,19.91
2018-08-30T02:39:45.419Z,19.92
2018-08-30T02:40:45.429Z,19.92
2018-08-30T02:41:45.381Z,19.89
2018-08-30T02:42:45.637Z,19.88
2018-08-30T02:43:45.458Z,19.84
2018-08-30T02:44:45.507Z,19.84
2018-08-30T02:45:45.589Z,19.84
2018-08-30T02:46:45.377Z,19.89
2018-08-30T02:47:45.569Z,19.86
2018-08-30T02:48:45.420Z,19.82
2018-08-30T02:49:45.503Z,19.74
2018-08-30T02:50:45.405Z,19.74
2018-08-30T02:51:45.678Z,19.72
2018-08-30T02:52:45.450Z,19.71
2018-08-30T02:53:45.952Z,19.72
2018-08-30T02:54:45.424Z,19.72
2018-08-30T02:55:45.445Z,19.74
2018-08-30T02:56:45.671Z,19.72
2018-08-30T02:57:45.508Z,19.71
2018-08-30T02:58:45.540Z,19.71
2018-08-30T02:59:45.428Z,19.67
2018-08-30T03:00:45.441Z,19.72
2018-08-30T03:01:45.420Z,19.7
2018-08-30T03:02:45.484Z,19.71
2018-08-30T03:03:45.476Z,19.71
2018-08-30T03:04:45.473Z,19.7
2018-08-30T03:05:45.476Z,19.67
2018-08-30T03:06:45.580Z,19.64
2018-08-30T03:07:45.410Z,19.68
2018-08-30T03:08:45.648Z,19.67
2018-08-30T03:09:45.764Z,19.64
2018-08-30T03:10:45.767Z,19.62
2018-08-30T03:11:45.419Z,19.6
2018-08-30T03:12:45.707Z,19.58
2018-08-30T03:13:45.615Z,19.58
2018-08-30T03:14:45.982Z,19.56
2018-08-30T03:15:45.689Z,19.54
2018-08-30T03:16:45.706Z,19.58
2018-08-30T03:17:45.425Z,19.57
2018-08-30T03:18:45.436Z,19.6
2018-08-30T03:19:45.757Z,19.6
2018-08-30T03:20:45.492Z,19.56
2018-08-30T03:21:45.450Z,19.53
2018-08-30T03:22:45.636Z,19.54
2018-08-30T03:23:45.594Z,19.53
2018-08-30T03:24:45.522Z,19.5
2018-08-30T03:25:45.467Z,19.5
2018-08-30T03:26:45.458Z,19.51
2018-08-30T03:27:45.459Z,19.47
2018-08-30T03:28:45.431Z,19.49
2018-08-30T03:29:45.442Z,19.51
2018-08-30T03:30:46.051Z,19.53
2018-08-30T03:31:45.544Z,19.53
2018-08-30T03:32:45.526Z,19.5
2018-08-30T03:33:45.515Z,19.43
2018-08-30T03:34:45.471Z,19.44
2018-08-30T03:35:45.454Z,19.47
2018-08-30T03:36:45.489Z,19.43
2018-08-30T03:37:45.606Z,19.36
2018-08-30T03:38:45.478Z,19.39
2018-08-30T03:39:45.455Z,19.39
2018-08-30T03:40:45.481Z,19.33
2018-08-30T03:41:46.394Z,19.32
2018-08-30T03:42:45.488Z,19.29
2018-08-30T03:43:45.513Z,19.3
2018-08-30T03:44:45.491Z,19.25
2018-08-30T03:45:45.454Z,19.27
2018-08-30T03:46:45.553Z,19.22
2018-08-30T03:47:45.467Z,19.19
2018-08-30T03:48:45.497Z,19.17
2018-08-30T03:49:45.482Z,19.15
2018-08-30T03:50:45.475Z,19.09
2018-08-30T03:51:45.490Z,19.05
2018-08-30T03:52:45.520Z,19.01
2018-08-30T03:53:45.481Z,18.95
2018-08-30T03:54:45.494Z,18.98
2018-08-30T03:55:45.533Z,19.01
2018-08-30T03:56:45.485Z,18.98
2018-08-30T03:57:45.512Z,18.97
2018-08-30T03:58:45.664Z,18.97
2018-08-30T03:59:45.494Z,18.89
2018-08-30T04:00:45.471Z,18.88
2018-08-30T04:01:45.503Z,18.85
2018-08-30T04:02:45.548Z,18.85
2018-08-30T04:03:45.562Z,18.84
2018-08-30T04:04:45.666Z,18.82
2018-08-30T04:05:45.656Z,18.85
2018-08-30T04:06:45.548Z,18.8
2018-08-30T04:07:45.679Z,18.72
2018-08-30T04:08:45.517Z,18.72
2018-08-30T04:09:45.642Z,18.71
2018-08-30T04:10:45.701Z,18.71
2018-08-30T04:11:45.507Z,18.71
2018-08-30T04:12:45.531Z,18.7
2018-08-30T04:13:45.532Z,18.66
2018-08-30T04:14:45.559Z,18.7
2018-08-30T04:15:45.653Z,18.7
2018-08-30T04:16:45.578Z,18.7
2018-08-30T04:17:45.538Z,18.71
2018-08-30T04:18:45.630Z,18.7
2018-08-30T04:19:45.745Z,18.67
2018-08-30T04:20:45.534Z,18.66
2018-08-30T04:21:45.857Z,18.7
2018-08-30T04:22:45.662Z,18.66
2018-08-30T04:23:45.554Z,18.68
2018-08-30T04:24:45.541Z,18.68
2018-08-30T04:25:45.535Z,18.7
2018-08-30T04:26:45.598Z,18.7
2018-08-30T04:27:45.574Z,18.71
2018-08-30T04:28:45.520Z,18.7
2018-08-30T04:29:45.558Z,18.66
2018-08-30T04:30:45.686Z,18.64
2018-08-30T04:31:45.664Z,18.67
2018-08-30T04:32:45.538Z,18.67
2018-08-30T04:33:45.668Z,18.67
2018-08-30T04:34:45.515Z,18.64
2018-08-30T04:35:45.853Z,18.59
2018-08-30T04:36:45.554Z,18.59
2018-08-30T04:37:45.545Z,18.59
2018-08-30T04:38:45.665Z,18.53
2018-08-30T04:39:45.525Z,18.6
2018-08-30T04:40:45.697Z,18.56
2018-08-30T04:41:45.556Z,18.54
2018-08-30T04:42:45.684Z,18.57
2018-08-30T04:43:46.218Z,18.57
2018-08-30T04:44:45.564Z,18.57
2018-08-30T04:45:45.683Z,18.61
2018-08-30T04:46:45.640Z,18.59
2018-08-30T04:47:45.541Z,18.52
2018-08-30T04:48:45.623Z,18.52
2018-08-30T04:49:45.854Z,18.52
2018-08-30T04:50:45.623Z,18.47
2018-08-30T04:51:45.733Z,18.44
2018-08-30T04:52:45.706Z,18.44
2018-08-30T04:53:45.724Z,18.46
2018-08-30T04:54:45.934Z,18.43
2018-08-30T04:55:45.639Z,18.44
2018-08-30T04:56:46.545Z,18.46
2018-08-30T04:57:45.799Z,18.43
2018-08-30T04:58:45.712Z,18.39
2018-08-30T04:59:45.843Z,18.37
2018-08-30T05:00:45.572Z,18.39
2018-08-30T05:01:46.047Z,18.39
2018-08-30T05:02:45.566Z,18.42
2018-08-30T05:03:45.566Z,18.42
2018-08-30T05:04:45.591Z,18.4
2018-08-30T05:05:45.555Z,18.46
2018-08-30T05:06:45.627Z,18.47
2018-08-30T05:07:45.571Z,18.39
2018-08-30T05:08:45.615Z,18.39
2018-08-30T05:09:45.554Z,18.33
2018-08-30T05:10:45.542Z,18.36
2018-08-30T05:11:45.670Z,18.33
2018-08-30T05:12:45.589Z,18.3
2018-08-30T05:13:45.558Z,18.3
2018-08-30T05:14:45.595Z,18.32
2018-08-30T05:15:45.626Z,18.3
2018-08-30T05:16:45.580Z,18.32
2018-08-30T05:17:45.619Z,18.32
2018-08-30T05:18:45.553Z,18.26
2018-08-30T05:19:45.632Z,18.32
2018-08-30T05:20:45.584Z,18.29
2018-08-30T05:21:45.579Z,18.32
2018-08-30T05:22:45.751Z,18.29
2018-08-30T05:23:45.667Z,18.3
2018-08-30T05:24:45.581Z,18.29
2018-08-30T05:25:45.689Z,18.26
2018-08-30T05:26:45.903Z,18.3
2018-08-30T05:27:45.599Z,18.35
2018-08-30T05:28:45.604Z,18.36
2018-08-30T05:29:45.858Z,18.33
2018-08-30T05:30:46.027Z,18.3
2018-08-30T05:31:45.662Z,18.33
2018-08-30T05:32:45.603Z,18.3
2018-08-30T05:33:46.253Z,18.33
2018-08-30T05:34:45.779Z,18.39
2018-08-30T05:35:46.124Z,18.37
2018-08-30T05:36:45.600Z,18.37
2018-08-30T05:37:46.140Z,18.43
2018-08-30T05:38:45.789Z,18.46
2018-08-30T05:39:46.103Z,18.46
2018-08-30T05:40:45.686Z,18.44
2018-08-30T05:41:45.588Z,18.46
2018-08-30T05:42:45.600Z,18.52
2018-08-30T05:43:45.611Z,18.54
2018-08-30T05:44:46.064Z,18.53
2018-08-30T05:45:46.062Z,18.56
2018-08-30T05:46:45.679Z,18.54
2018-08-30T05:47:45.765Z,18.5
2018-08-30T05:48:45.647Z,18.52
2018-08-30T05:49:45.704Z,18.5
2018-08-30T05:50:46.097Z,18.5
2018-08-30T05:51:45.867Z,18.54
2018-08-30T05:52:45.664Z,18.57
2018-08-30T05:53:45.818Z,18.57
2018-08-30T05:54:45.616Z,18.59
2018-08-30T05:55:45.905Z,18.54
2018-08-30T05:56:46.227Z,18.54
2018-08-30T05:57:45.745Z,18.47
2018-08-30T05:58:45.869Z,18.49
2018-08-30T05:59:45.723Z,18.5
2018-08-30T06:00:45.611Z,18.5
2018-08-30T06:01:45.734Z,18.54
2018-08-30T06:02:45.639Z,18.53
2018-08-30T06:03:45.698Z,18.53
2018-08-30T06:04:46.066Z,18.53
2018-08-30T06:05:45.782Z,18.52
2018-08-30T06:06:45.645Z,18.52
2018-08-30T06:07:45.710Z,18.5
2018-08-30T06:08:45.997Z,18.52
2018-08-30T06:09:45.647Z,18.49
2018-08-30T06:10:45.974Z,18.47
2018-08-30T06:11:45.649Z,18.47
2018-08-30T06:12:45.964Z,18.49
2018-08-30T06:13:45.798Z,18.57
2018-08-30T06:14:46.142Z,18.6
2018-08-30T06:15:45.709Z,18.56
2018-08-30T06:16:45.639Z,18.6
2018-08-30T06:17:45.651Z,18.57
2018-08-30T06:18:45.714Z,18.53
2018-08-30T06:19:45.728Z,18.61
2018-08-30T06:20:45.735Z,18.6
2018-08-30T06:21:45.962Z,18.6
2018-08-30T06:22:45.681Z,18.56
2018-08-30T06:23:45.826Z,18.57
2018-08-30T06:24:45.669Z,18.59
2018-08-30T06:25:45.664Z,18.56
2018-08-30T06:26:45.955Z,18.56
2018-08-30T06:27:45.668Z,18.56
2018-08-30T06:28:45.700Z,18.59
2018-08-30T06:29:45.686Z,18.54
2018-08-30T06:30:45.699Z,18.56
2018-08-30T06:31:45.695Z,18.54
2018-08-30T06:32:45.859Z,18.53
2018-08-30T06:33:45.706Z,18.56
2018-08-30T06:34:46.240Z,18.6
2018-08-30T06:35:45.696Z,18.63
2018-08-30T06:36:45.694Z,18.61
2018-08-30T06:37:45.688Z,18.63
2018-08-30T06:38:46.159Z,18.63
2018-08-30T06:39:45.683Z,18.63
2018-08-30T06:40:45.692Z,18.53
2018-08-30T06:41:45.669Z,18.54
2018-08-30T06:42:45.730Z,18.52
2018-08-30T06:43:45.700Z,18.54
2018-08-30T06:44:45.715Z,18.49
2018-08-30T06:45:46.764Z,18.52
2018-08-30T06:46:45.707Z,18.54
2018-08-30T06:47:45.781Z,18.53
2018-08-30T06:48:45.723Z,18.56
2018-08-30T06:49:45.686Z,18.59
2018-08-30T06:50:45.949Z,18.63
2018-08-30T06:51:45.734Z,18.6
2018-08-30T06:52:45.801Z,18.64
2018-08-30T06:53:46.011Z,18.63
2018-08-30T06:54:45.702Z,18.66
2018-08-30T06:55:46.018Z,18.6
2018-08-30T06:56:45.711Z,18.59
2018-08-30T06:57:46.242Z,18.61
2018-08-30T06:58:45.703Z,18.64
2018-08-30T06:59:45.690Z,18.6
2018-08-30T07:00:45.739Z,18.61
2018-08-30T07:01:45.780Z,18.63
2018-08-30T07:02:45.969Z,18.66
2018-08-30T07:03:45.753Z,18.68
2018-08-30T07:04:46.536Z,18.68
2018-08-30T07:05:45.728Z,18.66
2018-08-30T07:06:45.988Z,18.7
2018-08-30T07:07:45.811Z,18.74
2018-08-30T07:08:45.727Z,18.78
2018-08-30T07:09:45.751Z,18.8
2018-08-30T07:10:45.833Z,18.82
2018-08-30T07:11:45.765Z,18.81
2018-08-30T07:12:45.734Z,18.78
2018-08-30T07:13:45.754Z,18.84
2018-08-30T07:14:46.488Z,18.91
2018-08-30T07:15:46.106Z,18.94
2018-08-30T07:16:45.737Z,18.91
2018-08-30T07:17:45.745Z,18.95
2018-08-30T07:18:46.081Z,18.95
2018-08-30T07:19:46.074Z,18.97
2018-08-30T07:20:45.785Z,19.01
2018-08-30T07:21:45.803Z,19.03
2018-08-30T07:22:45.987Z,19.06
2018-08-30T07:23:45.806Z,19.09
2018-08-30T07:24:45.751Z,19.16
2018-08-30T07:25:45.972Z,19.15
2018-08-30T07:26:45.770Z,19.05
2018-08-30T07:27:46.331Z,19.09
2018-08-30T07:28:45.846Z,19.19
2018-08-30T07:29:46.034Z,19.26
2018-08-30T07:30:45.956Z,19.32
2018-08-30T07:31:45.790Z,19.32
2018-08-30T07:32:45.956Z,19.27
2018-08-30T07:33:45.807Z,19.26
2018-08-30T07:34:46.583Z,19.34
2018-08-30T07:35:45.774Z,19.37
2018-08-30T07:36:45.872Z,19.47
2018-08-30T07:37:46.093Z,19.49
2018-08-30T07:38:45.749Z,19.51
2018-08-30T07:39:45.761Z,19.49
2018-08-30T07:40:45.795Z,19.57
2018-08-30T07:41:45.774Z,19.56
2018-08-30T07:42:45.769Z,19.6
2018-08-30T07:43:45.869Z,19.64
2018-08-30T07:44:45.759Z,19.6
2018-08-30T07:45:45.798Z,19.61
2018-08-30T07:46:45.809Z,19.6
2018-08-30T07:47:45.780Z,19.56
2018-08-30T07:48:45.794Z,19.56
2018-08-30T07:49:45.757Z,19.56
2018-08-30T07:50:45.954Z,19.61
2018-08-30T07:51:45.834Z,19.62
2018-08-30T07:52:45.971Z,19.62
2018-08-30T07:53:45.809Z,19.6
2018-08-30T07:54:45.911Z,19.6
2018-08-30T07:55:45.887Z,19.62
2018-08-30T07:56:45.760Z,19.58
2018-08-30T07:57:45.768Z,19.53
2018-08-30T07:58:45.782Z,19.54
2018-08-30T07:59:45.761Z,19.56
2018-08-30T08:00:45.764Z,19.54
2018-08-30T08:01:45.950Z,19.58
2018-08-30T08:02:46.157Z,19.62
2018-08-30T08:03:45.834Z,19.61
2018-08-30T08:04:45.764Z,19.57
2018-08-30T08:05:45.906Z,19.47
2018-08-30T08:06:46.132Z,19.5
2018-08-30T08:07:45.836Z,19.49
2018-08-30T08:08:45.784Z,19.4
2018-08-30T08:09:45.800Z,19.46
2018-08-30T08:10:45.796Z,19.5
2018-08-30T08:11:46.080Z,19.5
2018-08-30T08:12:46.303Z,19.5
2018-08-30T08:13:46.366Z,19.54
2018-08-30T08:14:46.073Z,19.54
2018-08-30T08:15:45.805Z,19.58
2018-08-30T08:16:45.809Z,19.56
2018-08-30T08:17:46.395Z,19.56
2018-08-30T08:18:45.826Z,19.54
2018-08-30T08:19:45.916Z,19.54
2018-08-30T08:20:45.910Z,19.54
2018-08-30T08:21:45.961Z,19.56
2018-08-30T08:22:45.807Z,19.57
2018-08-30T08:23:45.812Z,19.5
2018-08-30T08:24:46.075Z,19.56
2018-08-30T08:25:45.960Z,19.57
2018-08-30T08:26:45.820Z,19.6
2018-08-30T08:27:45.906Z,19.61
2018-08-30T08:28:46.446Z,19.64
2018-08-30T08:29:45.811Z,19.67
2018-08-30T08:30:45.982Z,19.74
2018-08-30T08:31:45.921Z,19.7
2018-08-30T08:32:46.009Z,19.67
2018-08-30T08:33:46.071Z,19.61
2018-08-30T08:34:45.940Z,19.61
2018-08-30T08:35:45.990Z,19.53
2018-08-30T08:36:46.018Z,19.57
2018-08-30T08:37:46.017Z,19.57
2018-08-30T08:38:46.211Z,19.54
2018-08-30T08:39:45.868Z,19.56
2018-08-30T08:40:45.974Z,19.61
2018-08-30T08:41:45.877Z,19.62
2018-08-30T08:42:46.164Z,19.64
2018-08-30T08:43:45.871Z,19.72
2018-08-30T08:44:46.023Z,19.68
2018-08-30T08:45:46.085Z,19.74
2018-08-30T08:46:45.983Z,19.74
2018-08-30T08:47:46.339Z,19.77
2018-08-30T08:48:45.887Z,19.77
2018-08-30T08:49:45.985Z,19.79
2018-08-30T08:50:45.829Z,19.78
2018-08-30T08:51:45.969Z,19.84
2018-08-30T08:52:46.013Z,19.93
2018-08-30T08:53:46.986Z,19.93
2018-08-30T08:54:46.031Z,19.96
2018-08-30T08:55:45.991Z,19.98
2018-08-30T08:56:45.839Z,19.96
2018-08-30T08:57:46.160Z,19.96
2018-08-30T08:58:46.265Z,19.95
2018-08-30T08:59:45.859Z,19.93
2018-08-30T09:00:45.987Z,19.92
2018-08-30T09:01:45.997Z,19.92
2018-08-30T09:02:46.317Z,19.95
2018-08-30T09:03:46.277Z,19.88
2018-08-30T09:04:45.892Z,19.95
2018-08-30T09:05:45.959Z,19.86
2018-08-30T09:06:45.855Z,19.81
2018-08-30T09:07:46.687Z,19.86
2018-08-30T09:08:45.950Z,19.84
2018-08-30T09:09:45.950Z,19.92
2018-08-30T09:10:45.867Z,19.91
2018-08-30T09:11:45.927Z,19.96
2018-08-30T09:12:45.946Z,19.98
2018-08-30T09:13:45.969Z,19.99
2018-08-30T09:14:45.909Z,19.95
2018-08-30T09:15:45.868Z,19.93
2018-08-30T09:16:45.925Z,19.96
2018-08-30T09:17:45.907Z,19.96
2018-08-30T09:18:45.958Z,19.93
2018-08-30T09:19:45.919Z,19.91
2018-08-30T09:20:45.960Z,19.99
2018-08-30T09:21:45.960Z,20.02
2018-08-30T09:22:45.942Z,20.05
2018-08-30T09:23:45.938Z,20.01
2018-08-30T09:24:46.122Z,20.01
2018-08-30T09:25:45.924Z,20.02
2018-08-30T09:26:46.688Z,19.99
2018-08-30T09:27:46.135Z,20.01
2018-08-30T09:28:45.879Z,19.99
2018-08-30T09:29:45.912Z,19.92
2018-08-30T09:30:45.979Z,19.96
2018-08-30T09:31:45.977Z,19.96
2018-08-30T09:32:46.109Z,19.92
2018-08-30T09:33:46.406Z,19.85
2018-08-30T09:34:46.023Z,19.89
2018-08-30T09:35:46.021Z,19.88
2018-08-30T09:36:45.886Z,19.82
2018-08-30T09:37:46.064Z,19.79
2018-08-30T09:38:46.034Z,19.79
2018-08-30T09:39:46.309Z,19.79
2018-08-30T09:40:46.228Z,19.65
2018-08-30T09:41:45.963Z,19.71
2018-08-30T09:42:46.028Z,19.78
2018-08-30T09:43:46.111Z,19.79
2018-08-30T09:44:46.180Z,19.75
2018-08-30T09:45:46.162Z,19.81
2018-08-30T09:46:46.024Z,19.84
2018-08-30T09:47:46.172Z,19.88
2018-08-30T09:48:46.182Z,19.78
2018-08-30T09:49:46.672Z,19.72
2018-08-30T09:50:45.910Z,19.81
2018-08-30T09:51:46.123Z,19.88
2018-08-30T09:52:46.079Z,19.74
2018-08-30T09:53:45.957Z,19.72
2018-08-30T09:54:46.049Z,19.75
2018-08-30T09:55:46.394Z,19.79
2018-08-30T09:56:46.330Z,19.79
2018-08-30T09:57:46.545Z,19.85
2018-08-30T09:58:46.046Z,19.88
2018-08-30T09:59:47.870Z,19.92
2018-08-30T10:00:46.313Z,19.82
2018-08-30T10:01:46.039Z,19.88
2018-08-30T10:02:46.055Z,19.88
2018-08-30T10:03:46.083Z,19.89
2018-08-30T10:04:46.474Z,19.92
2018-08-30T10:05:46.315Z,19.91
2018-08-30T10:06:46.690Z,19.92
2018-08-30T10:07:48.653Z,19.91
2018-08-30T10:08:45.935Z,19.82
2018-08-30T10:09:46.071Z,19.86
2018-08-30T10:10:46.340Z,19.92
2018-08-30T10:11:46.240Z,19.85
2018-08-30T10:12:46.081Z,19.85
2018-08-30T10:13:45.972Z,19.89
2018-08-30T10:14:45.989Z,19.93
2018-08-30T10:15:46.252Z,20.02
2018-08-30T10:16:45.916Z,20.08
2018-08-30T10:17:45.931Z,20.06
2018-08-30T10:18:45.965Z,19.99
2018-08-30T10:19:45.957Z,19.93
2018-08-30T10:20:46.261Z,19.95
2018-08-30T10:21:46.237Z,19.99
2018-08-30T10:22:46.114Z,20.01
2018-08-30T10:23:45.952Z,20.02
2018-08-30T10:24:46.030Z,20.06
2018-08-30T10:25:46.062Z,20.16
2018-08-30T10:26:46.039Z,20.24
2018-08-30T10:27:45.938Z,20.26
2018-08-30T10:28:45.979Z,20.26
2018-08-30T10:29:45.969Z,20.34
2018-08-30T10:30:45.954Z,20.33
2018-08-30T10:31:45.968Z,20.4
2018-08-30T10:32:45.993Z,20.48
2018-08-30T10:33:45.961Z,20.6
2018-08-30T10:34:45.957Z,20.58
2018-08-30T10:35:45.953Z,20.64
2018-08-30T10:36:45.983Z,20.67
2018-08-30T10:37:46.033Z,20.65
2018-08-30T10:38:45.983Z,20.68
2018-08-30T10:39:45.991Z,20.72
2018-08-30T10:40:45.971Z,20.72
2018-08-30T10:41:46.075Z,20.65
2018-08-30T10:42:46.085Z,20.72
2018-08-30T10:43:46.044Z,20.68
2018-08-30T10:44:46.059Z,20.7
2018-08-30T10:45:47.242Z,20.67
2018-08-30T10:46:46.305Z,20.67
2018-08-30T10:47:46.360Z,20.65
2018-08-30T10:48:46.192Z,20.57
2018-08-30T10:49:46.392Z,20.61
2018-08-30T10:50:46.179Z,20.6
2018-08-30T10:51:46.326Z,20.62
2018-08-30T10:52:46.240Z,20.58
2018-08-30T10:53:46.132Z,20.58
2018-08-30T10:54:46.055Z,20.55
2018-08-30T10:55:46.320Z,20.54
2018-08-30T10:56:45.996Z,20.54
2018-08-30T10:57:46.138Z,20.51
2018-08-30T10:58:46.293Z,20.5
2018-08-30T10:59:46.156Z,20.64
2018-08-30T11:00:46.030Z,20.67
2018-08-30T11:01:46.312Z,20.67
2018-08-30T11:02:46.122Z,20.68
2018-08-30T11:03:46.745Z,20.74
2018-08-30T11:04:46.036Z,20.79
2018-08-30T11:05:46.057Z,20.85
2018-08-30T11:06:46.022Z,20.85
2018-08-30T11:07:46.227Z,20.94
2018-08-30T11:08:46.137Z,20.99
2018-08-30T11:09:46.040Z,21.01
2018-08-30T11:10:46.156Z,21.02
2018-08-30T11:11:46.113Z,21.03
2018-08-30T11:12:46.226Z,21.05
2018-08-30T11:13:46.364Z,20.95
2018-08-30T11:14:45.998Z,20.82
2018-08-30T11:15:46.121Z,20.85
2018-08-30T11:16:46.084Z,20.89
2018-08-30T11:17:46.243Z,21.02
2018-08-30T11:18:46.498Z,20.85
2018-08-30T11:19:46.078Z,20.87
2018-08-30T11:20:46.039Z,20.95
2018-08-30T11:21:46.024Z,20.89
2018-08-30T11:22:46.102Z,20.96
2018-08-30T11:23:46.140Z,21.02
2018-08-30T11:24:46.064Z,21.13
2018-08-30T11:25:46.532Z,21.2
2018-08-30T11:26:46.310Z,21.3
2018-08-30T11:27:46.125Z,21.39
2018-08-30T11:28:46.240Z,21.46
2018-08-30T11:29:46.252Z,21.12
2018-08-30T11:30:46.826Z,20.89
2018-08-30T11:31:46.116Z,21.06
2018-08-30T11:32:46.044Z,21.26
2018-08-30T11:33:46.690Z,21.19
2018-08-30T11:34:46.720Z,21.17
2018-08-30T11:35:46.039Z,21.23
2018-08-30T11:36:46.154Z,21.26
2018-08-30T11:37:46.554Z,21.26
2018-08-30T11:38:46.180Z,21.26
2018-08-30T11:39:46.437Z,21.26
2018-08-30T11:40:46.281Z,21.17
2018-08-30T11:41:47.987Z,21.17
2018-08-30T11:42:46.027Z,21.12
2018-08-30T11:43:46.266Z,21.13
2018-08-30T11:44:46.082Z,21.19
2018-08-30T11:45:46.072Z,21.22
2018-08-30T11:46:46.073Z,21.27
2018-08-30T11:47:46.117Z,21.39
2018-08-30T11:48:46.225Z,21.39
2018-08-30T11:49:46.079Z,21.44
2018-08-30T11:50:46.176Z,21.57
2018-08-30T11:51:46.134Z,21.67
2018-08-30T11:52:46.604Z,21.72
2018-08-30T11:53:46.161Z,21.75
2018-08-30T11:54:46.254Z,21.86
2018-08-30T11:56:46.127Z,21.92
2018-08-30T11:57:46.223Z,21.98
2018-08-30T11:58:46.039Z,22.08
2018-08-30T11:59:46.074Z,22.15
2018-08-30T12:00:46.257Z,22.06
2018-08-30T12:01:46.099Z,22.05
2018-08-30T12:02:46.181Z,22.15
2018-08-30T12:03:46.214Z,22.17
2018-08-30T12:04:46.257Z,22.12
2018-08-30T12:05:46.113Z,22.08
2018-08-30T12:06:46.512Z,22.02
2018-08-30T12:07:46.167Z,21.96
2018-08-30T12:08:46.244Z,21.84
2018-08-30T12:09:46.103Z,21.84
2018-08-30T12:10:46.851Z,21.85
2018-08-30T12:11:47.373Z,21.89
2018-08-30T12:12:46.288Z,21.91
2018-08-30T12:13:46.098Z,21.95
2018-08-30T12:14:46.107Z,21.82
2018-08-30T12:15:46.114Z,21.82
2018-08-30T12:16:46.135Z,21.89
2018-08-30T12:17:46.136Z,21.92
2018-08-30T12:18:46.572Z,21.89
2018-08-30T12:19:46.243Z,21.88
2018-08-30T12:20:46.774Z,21.84
2018-08-30T12:21:46.101Z,21.85
2018-08-30T12:22:46.673Z,21.91
2018-08-30T12:23:46.245Z,21.94
2018-08-30T12:24:46.182Z,21.99
2018-08-30T12:25:46.254Z,22.12
2018-08-30T12:26:46.136Z,22.08
2018-08-30T12:27:46.229Z,22.05
2018-08-30T12:28:47.073Z,21.92
2018-08-30T12:29:46.207Z,21.99
2018-08-30T12:30:46.317Z,22.02
2018-08-30T12:31:46.678Z,22.01
2018-08-30T12:32:46.445Z,22.03
2018-08-30T12:33:46.596Z,22.06
2018-08-30T12:34:46.368Z,22.06
2018-08-30T12:35:47.067Z,22.15
2018-08-30T12:36:46.682Z,22.19
2018-08-30T12:37:46.217Z,22.22
2018-08-30T12:38:46.421Z,22.19
2018-08-30T12:39:46.881Z,22.13
2018-08-30T12:40:46.579Z,22.11
2018-08-30T12:41:46.214Z,22.11
2018-08-30T12:42:46.552Z,22.02
2018-08-30T12:43:46.458Z,21.98
2018-08-30T12:44:46.545Z,21.96
2018-08-30T12:45:47.031Z,22.01
2018-08-30T12:46:46.261Z,21.98
2018-08-30T12:47:46.492Z,21.99
2018-08-30T12:48:46.564Z,22.01
2018-08-30T12:49:46.500Z,21.99
2018-08-30T12:50:47.210Z,21.98
2018-08-30T12:51:47.076Z,21.99
2018-08-30T12:52:47.141Z,21.99
2018-08-30T12:53:47.074Z,22.03
2018-08-30T12:54:46.677Z,22.06
2018-08-30T12:55:47.001Z,22.16
2018-08-30T12:56:46.947Z,22.27